Time;durP1;ratioP1;P1;durP2;ratioP2;P2;SDS_P1;SDS_P2;PMS_P1;PMS_P2;Temp;Humidity;BMP_temperature;BMP_pressure;BME280_temperature;BME280_humidity;BME280_pressure;Samples;Min_cycle;Max_cycle;Signal;HPM_P1;HPM_P2
2021/05/09 00:00:40;;;;;;;3.85;3.45;;;;;;;;;;5028811;28;20385;-90
2021/05/09 00:03:06;;;;;;;5.20;3.83;;;;;;;;;;5028830;28;20394;-90
2021/05/09 00:05:32;;;;;;;4.50;3.50;;;;;;;;;;5028993;28;20397;-90
2021/05/09 00:07:58;;;;;;;4.55;3.50;;;;;;;;;;5028690;28;20481;-91
2021/05/09 00:10:24;;;;;;;5.10;3.78;;;;;;;;;;5029256;28;20381;-90
2021/05/09 00:12:50;;;;;;;4.78;3.42;;;;;;;;;;5028812;28;20397;-90
2021/05/09 00:15:19;;;;;;;4.63;3.58;;;;;;;;;;5028993;28;20488;-89
2021/05/09 00:17:45;;;;;;;4.28;3.67;;;;;;;;;;5029171;28;20419;-92
2021/05/09 00:20:12;;;;;;;4.72;3.50;;;;;;;;;;5028937;28;20374;-90
2021/05/09 00:22:38;;;;;;;4.18;3.72;;;;;;;;;;5029013;28;20867;-91
2021/05/09 00:25:05;;;;;;;5.40;4.10;;;;;;;;;;5028761;28;20783;-91
2021/05/09 00:27:31;;;;;;;4.53;3.67;;;;;;;;;;5028341;28;20915;-92
2021/05/09 00:29:57;;;;;;;4.13;3.72;;;;;;;;;;5028803;28;20392;-90
2021/05/09 00:32:23;;;;;;;4.22;3.30;;;;;;;;;;5028587;28;20418;-93
2021/05/09 00:34:49;;;;;;;5.22;3.67;;;;;;;;;;5028670;28;20374;-91
2021/05/09 00:37:15;;;;;;;5.47;3.92;;;;;;;;;;5028629;28;20405;-90
2021/05/09 00:39:41;;;;;;;4.50;3.72;;;;;;;;;;5028879;28;20362;-91
2021/05/09 00:42:08;;;;;;;4.88;3.80;;;;;;;;;;5028500;28;20385;-91
2021/05/09 00:44:34;;;;;;;4.85;3.58;;;;;;;;;;5028752;28;20867;-90
2021/05/09 00:47:07;;;;;;;4.55;3.75;;;;;;;;;;5028515;28;20389;-90
2021/05/09 00:49:33;;;;;;;4.47;3.42;;;;;;;;;;5028300;28;20385;-92
2021/05/09 00:51:59;;;;;;;4.35;3.75;;;;;;;;;;5028650;28;20370;-92
2021/05/09 00:54:27;;;;;;;4.22;3.83;;;;;;;;;;5028410;28;20473;-90
2021/05/09 00:56:55;;;;;;;5.20;3.78;;;;;;;;;;5028322;28;20378;-90
2021/05/09 00:59:21;;;;;;;4.10;3.70;;;;;;;;;;5027871;28;20366;-90
2021/05/09 01:01:48;;;;;;;5.37;3.60;;;;;;;;;;5028189;28;20380;-90
2021/05/09 01:04:14;;;;;;;5.32;3.60;;;;;;;;;;5028420;28;20373;-90
2021/05/09 01:06:41;;;;;;;4.30;3.90;;;;;;;;;;5028442;28;20378;-91
2021/05/09 01:09:07;;;;;;;3.97;3.40;;;;;;;;;;5027995;28;20393;-90
2021/05/09 01:11:33;;;;;;;4.68;3.60;;;;;;;;;;5027958;28;20388;-93
2021/05/09 01:13:59;;;;;;;3.92;3.53;;;;;;;;;;5027848;28;20393;-91
2021/05/09 01:16:25;;;;;;;3.92;3.50;;;;;;;;;;5028406;28;20400;-90
2021/05/09 01:18:51;;;;;;;4.20;3.80;;;;;;;;;;5028303;28;20369;-91
2021/05/09 01:21:17;;;;;;;4.38;3.55;;;;;;;;;;5028402;28;20879;-92
2021/05/09 01:23:43;;;;;;;4.22;3.50;;;;;;;;;;5027977;28;20369;-89
2021/05/09 01:26:09;;;;;;;4.43;3.67;;;;;;;;;;5027892;28;20385;-91
2021/05/09 01:28:35;;;;;;;4.30;3.40;;;;;;;;;;5028051;28;20903;-91
2021/05/09 01:31:01;;;;;;;5.20;3.53;;;;;;;;;;5027903;28;20440;-92
2021/05/09 01:33:27;;;;;;;3.63;3.28;;;;;;;;;;5028269;28;20409;-90
2021/05/09 01:35:53;;;;;;;4.50;3.60;;;;;;;;;;5028171;28;20378;-90
2021/05/09 01:38:19;;;;;;;6.10;3.58;;;;;;;;;;5027631;28;20947;-90
2021/05/09 01:40:45;;;;;;;4.00;3.28;;;;;;;;;;5027958;28;20389;-91
2021/05/09 01:43:11;;;;;;;4.30;3.53;;;;;;;;;;5028031;28;20666;-90
2021/05/09 01:45:38;;;;;;;3.70;3.40;;;;;;;;;;5027886;28;20894;-92
2021/05/09 01:48:04;;;;;;;3.83;3.43;;;;;;;;;;5028381;28;20385;-91
2021/05/09 01:50:30;;;;;;;3.63;3.17;;;;;;;;;;5028157;28;20436;-90
2021/05/09 01:52:57;;;;;;;4.30;3.20;;;;;;;;;;5027656;28;20911;-90
2021/05/09 01:55:24;;;;;;;4.35;3.40;;;;;;;;;;5027835;28;20378;-90
2021/05/09 01:57:50;;;;;;;4.90;3.70;;;;;;;;;;5027880;28;20747;-91
2021/05/09 02:00:20;;;;;;;4.40;3.33;;;;;;;;;;5027856;28;20863;-93
2021/05/09 02:02:47;;;;;;;5.88;3.58;;;;;;;;;;5027700;28;20381;-91
2021/05/09 02:05:14;;;;;;;3.85;2.95;;;;;;;;;;5027719;28;20381;-91
2021/05/09 02:07:40;;;;;;;4.20;3.30;;;;;;;;;;5027612;28;20486;-90
2021/05/09 02:10:07;;;;;;;5.28;3.85;;;;;;;;;;5027793;28;20802;-90
2021/05/09 02:12:32;;;;;;;3.70;3.40;;;;;;;;;;5030173;28;22377;-91
2021/05/09 02:14:58;;;;;;;4.50;3.33;;;;;;;;;;5031302;28;20547;-90
2021/05/09 02:17:24;;;;;;;4.32;3.17;;;;;;;;;;5031092;28;20377;-90
2021/05/09 02:19:50;;;;;;;3.50;3.20;;;;;;;;;;5030759;28;20400;-91
2021/05/09 02:22:17;;;;;;;4.67;3.50;;;;;;;;;;5030805;28;20384;-92
2021/05/09 02:24:44;;;;;;;3.97;3.17;;;;;;;;;;5031526;28;20408;-91
2021/05/09 02:27:10;;;;;;;3.50;3.20;;;;;;;;;;5031209;28;20386;-91
2021/05/09 02:29:36;;;;;;;3.67;3.08;;;;;;;;;;5031074;28;20382;-90
2021/05/09 02:32:02;;;;;;;3.97;3.10;;;;;;;;;;5030674;28;20405;-91
2021/05/09 02:34:28;;;;;;;4.47;3.20;;;;;;;;;;5030967;28;20433;-91
2021/05/09 02:36:54;;;;;;;4.22;3.10;;;;;;;;;;5030571;28;20460;-91
2021/05/09 02:39:20;;;;;;;3.75;2.95;;;;;;;;;;5030394;28;20468;-91
2021/05/09 02:41:46;;;;;;;3.50;3.20;;;;;;;;;;5030542;28;20435;-91
2021/05/09 02:44:12;;;;;;;3.65;3.03;;;;;;;;;;5030592;28;20373;-91
2021/05/09 02:46:38;;;;;;;3.95;3.45;;;;;;;;;;5030626;28;20390;-90
2021/05/09 02:49:04;;;;;;;4.70;3.63;;;;;;;;;;5030390;28;20378;-91
2021/05/09 02:51:30;;;;;;;5.57;3.20;;;;;;;;;;5030389;28;20385;-91
2021/05/09 02:53:56;;;;;;;4.47;3.15;;;;;;;;;;5030415;28;20447;-91
2021/05/09 02:56:22;;;;;;;4.90;3.20;;;;;;;;;;5030574;28;20410;-92
2021/05/09 02:58:48;;;;;;;4.10;3.20;;;;;;;;;;5030515;28;20388;-91
2021/05/09 03:01:14;;;;;;;3.40;3.10;;;;;;;;;;5030475;28;20381;-88
2021/05/09 03:03:40;;;;;;;3.50;3.20;;;;;;;;;;5030437;28;20416;-91
2021/05/09 03:06:06;;;;;;;4.23;3.20;;;;;;;;;;5029834;28;20373;-90
2021/05/09 03:08:34;;;;;;;3.37;3.07;;;;;;;;;;5029974;28;20400;-91
2021/05/09 03:11:00;;;;;;;4.25;3.10;;;;;;;;;;5030169;28;20377;-92
2021/05/09 03:13:26;;;;;;;3.80;3.45;;;;;;;;;;5029935;28;20500;-91
2021/05/09 03:15:52;;;;;;;5.03;3.27;;;;;;;;;;5029885;28;20378;-90
2021/05/09 03:18:18;;;;;;;3.58;3.22;;;;;;;;;;5029660;28;20820;-92
2021/05/09 03:20:44;;;;;;;4.35;3.30;;;;;;;;;;5029769;28;20409;-91
2021/05/09 03:23:10;;;;;;;4.05;3.33;;;;;;;;;;5029303;28;20500;-91
2021/05/09 03:25:36;;;;;;;3.88;3.05;;;;;;;;;;5030050;28;20370;-92
2021/05/09 03:28:02;;;;;;;4.50;3.45;;;;;;;;;;5029831;28;20385;-91
2021/05/09 03:30:28;;;;;;;4.72;3.53;;;;;;;;;;5029866;28;20374;-91
2021/05/09 03:32:55;;;;;;;4.57;3.30;;;;;;;;;;5031071;28;20493;-90
2021/05/09 03:35:21;;;;;;;4.07;3.38;;;;;;;;;;5029842;28;20436;-91
2021/05/09 03:37:47;;;;;;;5.57;3.55;;;;;;;;;;5029573;28;20442;-91
2021/05/09 03:40:16;;;;;;;3.78;3.08;;;;;;;;;;5029438;28;20440;-91
2021/05/09 03:42:42;;;;;;;4.93;3.40;;;;;;;;;;5029510;28;20463;-91
2021/05/09 03:45:08;;;;;;;4.40;3.00;;;;;;;;;;5029360;28;20378;-91
2021/05/09 03:47:36;;;;;;;4.45;3.13;;;;;;;;;;5029423;28;20440;-91
2021/05/09 03:50:02;;;;;;;3.80;3.33;;;;;;;;;;5029612;28;20476;-92
2021/05/09 03:52:28;;;;;;;4.50;3.60;;;;;;;;;;5029442;28;20377;-90
2021/05/09 03:54:54;;;;;;;4.70;4.13;;;;;;;;;;5029125;28;20440;-91
2021/05/09 03:57:20;;;;;;;6.43;5.15;;;;;;;;;;5040434;28;20378;-92
2021/05/09 03:59:46;;;;;;;8.40;6.15;;;;;;;;;;5044310;28;20385;-90
2021/05/09 04:02:12;;;;;;;7.03;5.95;;;;;;;;;;5043896;28;20365;-89
2021/05/09 04:04:38;;;;;;;5.95;5.32;;;;;;;;;;5043371;28;20398;-90
2021/05/09 04:07:04;;;;;;;6.88;4.30;;;;;;;;;;5028919;28;20464;-92
2021/05/09 04:09:30;;;;;;;4.78;4.30;;;;;;;;;;5028842;28;20392;-91
2021/05/09 04:11:56;;;;;;;4.05;3.65;;;;;;;;;;5029022;28;20401;-91
2021/05/09 04:14:22;;;;;;;3.97;3.57;;;;;;;;;;5028959;28;20882;-90
2021/05/09 04:16:48;;;;;;;3.50;3.13;;;;;;;;;;5029043;28;20524;-91
2021/05/09 04:19:14;;;;;;;3.87;3.40;;;;;;;;;;5028750;28;20470;-91
2021/05/09 04:21:41;;;;;;;3.55;3.20;;;;;;;;;;5028556;28;20476;-91
2021/05/09 04:24:07;;;;;;;4.15;3.38;;;;;;;;;;5030053;28;20441;-90
2021/05/09 04:26:34;;;;;;;4.25;3.33;;;;;;;;;;5028734;28;20382;-91
2021/05/09 04:28:59;;;;;;;4.57;3.25;;;;;;;;;;5029075;28;20384;-90
2021/05/09 04:31:25;;;;;;;3.95;3.13;;;;;;;;;;5027383;28;20385;-91
2021/05/09 04:33:59;;;;;;;5.20;3.40;;;;;;;;;;5012660;28;20474;-92
2021/05/09 04:36:36;;;;;;;4.43;3.72;;;;;;;;;;5012084;28;20381;-91
2021/05/09 04:39:03;;;;;;;4.90;3.25;;;;;;;;;;5028630;28;20447;-91
2021/05/09 04:41:29;;;;;;;4.38;3.08;;;;;;;;;;5028793;28;20385;-92
2021/05/09 04:43:57;;;;;;;5.32;3.60;;;;;;;;;;5028122;28;20382;-90
2021/05/09 04:46:34;;;;;;;4.72;3.20;;;;;;;;;;5030107;28;20486;-91
2021/05/09 04:49:00;;;;;;;5.32;3.25;;;;;;;;;;5021409;28;20408;-92
2021/05/09 04:51:26;;;;;;;5.05;3.33;;;;;;;;;;5008760;28;20885;-91
2021/05/09 04:53:53;;;;;;;6.00;3.92;;;;;;;;;;5008631;28;20502;-91
2021/05/09 04:56:19;;;;;;;4.50;3.50;;;;;;;;;;5008680;28;20379;-93
2021/05/09 04:58:45;;;;;;;3.90;3.00;;;;;;;;;;5008438;28;20435;-90
2021/05/09 05:01:12;;;;;;;4.47;2.85;;;;;;;;;;5008818;28;20409;-92
2021/05/09 05:03:38;;;;;;;4.65;3.10;;;;;;;;;;5008966;28;20385;-91
2021/05/09 05:06:05;;;;;;;4.83;3.07;;;;;;;;;;5009292;28;20908;-91
2021/05/09 05:08:32;;;;;;;3.33;2.70;;;;;;;;;;5028193;28;20395;-92
2021/05/09 05:11:02;;;;;;;5.07;3.20;;;;;;;;;;5011541;28;20482;-93
2021/05/09 05:13:32;;;;;;;3.25;2.70;;;;;;;;;;5008719;28;20399;-92
2021/05/09 05:16:02;;;;;;;4.95;3.00;;;;;;;;;;5023848;28;20396;-92
2021/05/09 05:18:29;;;;;;;4.45;3.03;;;;;;;;;;5028490;28;20469;-91
2021/05/09 05:20:57;;;;;;;4.65;3.00;;;;;;;;;;5013285;28;20387;-92
2021/05/09 05:23:23;;;;;;;3.55;3.20;;;;;;;;;;5008322;28;20969;-92
2021/05/09 05:25:50;;;;;;;4.43;3.20;;;;;;;;;;5021034;28;20397;-92
2021/05/09 05:28:16;;;;;;;4.93;3.10;;;;;;;;;;5028175;28;20876;-91
2021/05/09 05:30:42;;;;;;;5.05;3.22;;;;;;;;;;5026236;28;20374;-92
2021/05/09 05:33:08;;;;;;;3.63;2.95;;;;;;;;;;5028166;28;20425;-91
2021/05/09 05:35:34;;;;;;;3.90;3.05;;;;;;;;;;5016823;28;20391;-91
2021/05/09 05:38:00;;;;;;;4.57;2.83;;;;;;;;;;5008300;28;20450;-92
2021/05/09 05:40:26;;;;;;;4.55;3.10;;;;;;;;;;5017697;28;20382;-92
2021/05/09 05:42:53;;;;;;;4.53;3.00;;;;;;;;;;5028426;28;20481;-92
2021/05/09 05:45:19;;;;;;;7.05;3.00;;;;;;;;;;5020091;28;20478;-92
2021/05/09 05:47:46;;;;;;;4.05;2.63;;;;;;;;;;5011772;28;20383;-93
2021/05/09 05:50:13;;;;;;;4.30;2.90;;;;;;;;;;5019128;28;20503;-92
2021/05/09 05:52:39;;;;;;;6.40;3.03;;;;;;;;;;5031917;28;20382;-93
2021/05/09 05:55:05;;;;;;;4.35;3.00;;;;;;;;;;5025523;28;20430;-92
2021/05/09 05:57:31;;;;;;;3.97;2.90;;;;;;;;;;5011988;28;20524;-93
2021/05/09 05:59:57;;;;;;;4.75;2.80;;;;;;;;;;5015755;28;20443;-93
2021/05/09 06:02:23;;;;;;;4.35;2.80;;;;;;;;;;5031545;28;20389;-91
2021/05/09 06:04:49;;;;;;;6.20;3.10;;;;;;;;;;5028753;28;21461;-93
2021/05/09 06:07:15;;;;;;;6.00;3.20;;;;;;;;;;5011570;28;20406;-92
2021/05/09 06:09:42;;;;;;;3.92;2.75;;;;;;;;;;5015887;28;20397;-91
2021/05/09 06:12:08;;;;;;;4.28;3.03;;;;;;;;;;5031254;28;20808;-91
2021/05/09 06:14:34;;;;;;;3.10;2.67;;;;;;;;;;5027945;28;20547;-93
2021/05/09 06:17:00;;;;;;;3.70;2.92;;;;;;;;;;5011537;28;20380;-92
2021/05/09 06:19:26;;;;;;;3.90;2.78;;;;;;;;;;5014008;28;20472;-90
2021/05/09 06:21:52;;;;;;;4.88;2.75;;;;;;;;;;5031282;28;20860;-92
2021/05/09 06:24:18;;;;;;;4.10;2.55;;;;;;;;;;5029861;28;20389;-91
2021/05/09 06:26:45;;;;;;;4.97;2.90;;;;;;;;;;5011206;28;20379;-91
2021/05/09 06:29:11;;;;;;;4.10;2.80;;;;;;;;;;5011233;28;20380;-92
2021/05/09 06:31:38;;;;;;;5.05;2.65;;;;;;;;;;5030175;28;20366;-91
2021/05/09 06:34:04;;;;;;;5.07;3.38;;;;;;;;;;5030964;28;20472;-91
2021/05/09 06:36:30;;;;;;;3.00;2.63;;;;;;;;;;5012236;28;20448;-92
2021/05/09 06:38:56;;;;;;;3.30;2.60;;;;;;;;;;5011098;28;20385;-93
2021/05/09 06:41:22;;;;;;;4.47;2.65;;;;;;;;;;5027912;28;20382;-92
2021/05/09 06:43:54;;;;;;;3.20;2.58;;;;;;;;;;5030686;28;20452;-91
2021/05/09 06:46:20;;;;;;;3.47;2.45;;;;;;;;;;5013732;28;20379;-91
2021/05/09 06:48:46;;;;;;;3.30;2.37;;;;;;;;;;5010955;28;21011;-92
2021/05/09 06:51:12;;;;;;;2.80;2.47;;;;;;;;;;5025514;28;20398;-92
2021/05/09 06:53:38;;;;;;;2.97;2.25;;;;;;;;;;5030836;28;20404;-93
2021/05/09 06:56:04;;;;;;;2.92;2.60;;;;;;;;;;5017449;28;20387;-92
2021/05/09 06:58:31;;;;;;;3.30;2.75;;;;;;;;;;5009840;28;20424;-93
2021/05/09 07:00:57;;;;;;;2.65;2.42;;;;;;;;;;5023828;28;20396;-93
2021/05/09 07:03:23;;;;;;;4.60;2.70;;;;;;;;;;5030752;28;20381;-92
2021/05/09 07:05:49;;;;;;;3.25;2.60;;;;;;;;;;5029974;28;20396;-93
2021/05/09 07:08:15;;;;;;;3.65;2.80;;;;;;;;;;5031714;28;20471;-92
2021/05/09 07:10:41;;;;;;;3.45;2.38;;;;;;;;;;5018100;28;20419;-91
2021/05/09 07:13:07;;;;;;;3.83;2.40;;;;;;;;;;5010454;28;20442;-92
2021/05/09 07:15:38;;;;;;;2.47;2.20;;;;;;;;;;5011214;28;20898;-92
2021/05/09 07:18:14;;;;;;;3.40;2.37;;;;;;;;;;5010425;28;20393;-92
2021/05/09 07:20:45;;;;;;;3.60;2.10;;;;;;;;;;5024032;28;20398;-92
2021/05/09 07:23:12;;;;;;;3.60;2.30;;;;;;;;;;5028936;28;20423;-91
2021/05/09 07:25:39;;;;;;;3.10;2.40;;;;;;;;;;5013709;28;20816;-93
2021/05/09 07:28:10;;;;;;;3.33;2.13;;;;;;;;;;5027937;28;20420;-90
2021/05/09 07:30:36;;;;;;;2.63;2.08;;;;;;;;;;5009287;28;20430;-88
2021/05/09 07:33:02;;;;;;;4.20;2.35;;;;;;;;;;5009835;28;20411;-91
2021/05/09 07:35:28;;;;;;;3.47;2.33;;;;;;;;;;5029975;28;20396;-90
2021/05/09 07:38:00;;;;;;;2.70;2.03;;;;;;;;;;5025524;28;20476;-87
2021/05/09 07:40:27;;;;;;;7.38;2.35;;;;;;;;;;5017936;28;20406;-88
2021/05/09 07:42:53;;;;;;;4.38;2.10;;;;;;;;;;5022324;28;20395;-88
2021/05/09 07:45:21;;;;;;;3.30;2.25;;;;;;;;;;5009456;28;20710;-86
2021/05/09 07:47:47;;;;;;;2.35;1.98;;;;;;;;;;5011398;28;20401;-90
2021/05/09 07:50:14;;;;;;;3.88;2.25;;;;;;;;;;5029132;28;20684;-88
2021/05/09 07:52:40;;;;;;;4.15;2.17;;;;;;;;;;5028723;28;20478;-87
2021/05/09 07:55:07;;;;;;;2.20;2.00;;;;;;;;;;5011038;28;20387;-88
2021/05/09 07:57:33;;;;;;;2.90;2.00;;;;;;;;;;5044074;28;20372;-90
2021/05/09 07:59:59;;;;;;;2.95;2.15;;;;;;;;;;5028491;28;20389;-90
2021/05/09 08:02:27;;;;;;;6.57;2.20;;;;;;;;;;5023186;28;20827;-92
2021/05/09 08:04:53;;;;;;;6.95;2.55;;;;;;;;;;5028485;28;20381;-89
2021/05/09 08:07:19;;;;;;;3.30;1.93;;;;;;;;;;5015632;28;20943;-87
2021/05/09 08:09:45;;;;;;;2.58;1.98;;;;;;;;;;5009468;28;20391;-90
2021/05/09 08:12:11;;;;;;;3.03;2.15;;;;;;;;;;5020691;28;20400;-88
2021/05/09 08:14:37;;;;;;;3.47;2.00;;;;;;;;;;5021725;28;20407;-90
2021/05/09 08:17:03;;;;;;;4.78;1.90;;;;;;;;;;5008600;28;20391;-91
2021/05/09 08:19:29;;;;;;;5.45;2.10;;;;;;;;;;5013812;28;20476;-92
2021/05/09 08:21:59;;;;;;;3.35;1.85;;;;;;;;;;5015351;28;20391;-89
2021/05/09 08:24:48;;;;;;;3.80;1.83;;;;;;;;;;5029425;28;20378;-90
2021/05/09 08:27:14;;;;;;;3.17;1.70;;;;;;;;;;5015686;28;20387;-88
2021/05/09 08:29:49;;;;;;;6.15;1.50;;;;;;;;;;5009471;28;20379;-89
2021/05/09 08:32:17;;;;;;;5.22;1.90;;;;;;;;;;5009690;28;20468;-90
2021/05/09 08:34:43;;;;;;;2.70;1.70;;;;;;;;;;5008768;28;20407;-93
2021/05/09 08:37:09;;;;;;;1.88;1.40;;;;;;;;;;5008802;28;20876;-91
2021/05/09 08:39:36;;;;;;;2.95;1.63;;;;;;;;;;5009134;28;20442;-92
2021/05/09 08:42:02;;;;;;;3.28;1.80;;;;;;;;;;5008997;28;20375;-94
2021/05/09 08:44:30;;;;;;;2.03;1.50;;;;;;;;;;5014539;28;21178;-93
2021/05/09 08:46:57;;;;;;;2.95;1.58;;;;;;;;;;5022886;28;20465;-89
2021/05/09 08:49:23;;;;;;;3.60;1.70;;;;;;;;;;5028943;28;20361;-86
2021/05/09 08:51:50;;;;;;;2.92;1.33;;;;;;;;;;5019480;28;20386;-90
2021/05/09 08:54:16;;;;;;;3.10;1.40;;;;;;;;;;5027234;28;20403;-91
2021/05/09 08:56:42;;;;;;;2.07;1.60;;;;;;;;;;5025726;28;20382;-90
2021/05/09 08:59:09;;;;;;;2.45;1.50;;;;;;;;;;5026358;28;20411;-88
2021/05/09 09:01:39;;;;;;;3.30;1.40;;;;;;;;;;5018095;28;20383;-89
2021/05/09 09:04:05;;;;;;;2.08;1.30;;;;;;;;;;5018458;28;20389;-89
2021/05/09 09:06:48;;;;;;;3.07;1.50;;;;;;;;;;5018501;28;20390;-90
2021/05/09 09:09:18;;;;;;;2.03;1.40;;;;;;;;;;5017496;28;20417;-90
2021/05/09 09:11:56;;;;;;;2.55;1.63;;;;;;;;;;5016723;28;20528;-88
2021/05/09 09:14:26;;;;;;;3.85;1.60;;;;;;;;;;5016430;28;20766;-90
2021/05/09 09:17:11;;;;;;;10.52;2.10;;;;;;;;;;5019503;28;20395;-89
2021/05/09 09:19:57;;;;;;;3.77;1.53;;;;;;;;;;5020544;28;20385;-91
2021/05/09 09:22:23;;;;;;;3.45;1.40;;;;;;;;;;5018485;28;20382;-92
2021/05/09 09:25:05;;;;;;;2.45;1.30;;;;;;;;;;5021447;28;20736;-89
2021/05/09 09:27:31;;;;;;;2.60;1.25;;;;;;;;;;5021971;28;20460;-90
2021/05/09 09:30:01;;;;;;;2.40;1.20;;;;;;;;;;5020744;28;20380;-90
2021/05/09 09:32:27;;;;;;;2.20;1.27;;;;;;;;;;5022674;28;20385;-90
2021/05/09 09:34:53;;;;;;;3.00;2.53;;;;;;;;;;5026183;28;20409;-90
2021/05/09 09:37:20;;;;;;;2.80;1.63;;;;;;;;;;5023223;28;20393;-84
2021/05/09 09:39:54;;;;;;;2.40;1.45;;;;;;;;;;5022372;28;20476;-85
2021/05/09 09:42:39;;;;;;;2.33;1.67;;;;;;;;;;5023508;28;20385;-85
2021/05/09 09:45:15;;;;;;;1.63;1.20;;;;;;;;;;5020229;28;20383;-84
2021/05/09 09:47:54;;;;;;;2.38;1.33;;;;;;;;;;5022865;28;20390;-85
2021/05/09 09:50:37;;;;;;;2.97;1.40;;;;;;;;;;5019892;28;20388;-89
2021/05/09 09:53:24;;;;;;;1.30;1.20;;;;;;;;;;5023587;28;20413;-83
2021/05/09 09:56:04;;;;;;;2.40;1.40;;;;;;;;;;5040580;28;20396;-82
2021/05/09 09:58:43;;;;;;;3.42;1.60;;;;;;;;;;5019811;28;20721;-82
2021/05/09 10:01:10;;;;;;;1.90;1.38;;;;;;;;;;5021630;28;20373;-82
2021/05/09 10:03:36;;;;;;;3.75;1.50;;;;;;;;;;5021710;28;20383;-82
2021/05/09 10:06:03;;;;;;;1.63;1.27;;;;;;;;;;5021450;28;22645;-82
2021/05/09 10:08:29;;;;;;;2.37;1.10;;;;;;;;;;5020357;28;20387;-80
2021/05/09 10:10:55;;;;;;;2.40;1.20;;;;;;;;;;5020869;28;20371;-80
2021/05/09 10:13:22;;;;;;;1.98;1.13;;;;;;;;;;5021040;28;20438;-81
2021/05/09 10:15:48;;;;;;;2.42;1.30;;;;;;;;;;5020270;28;20510;-81
2021/05/09 10:18:15;;;;;;;1.73;1.20;;;;;;;;;;5020317;28;20476;-81
2021/05/09 10:20:41;;;;;;;1.23;1.02;;;;;;;;;;5015595;28;20947;-81
2021/05/09 10:23:08;;;;;;;1.80;1.10;;;;;;;;;;5012008;28;20426;-80
2021/05/09 10:25:50;;;;;;;2.53;1.65;;;;;;;;;;5011606;28;20371;-81
2021/05/09 10:28:19;;;;;;;2.83;1.15;;;;;;;;;;5029407;28;20478;-84
2021/05/09 10:30:53;;;;;;;3.28;1.42;;;;;;;;;;5028681;28;20550;-80
2021/05/09 10:33:38;;;;;;;1.88;1.10;;;;;;;;;;5019960;28;20397;-87
2021/05/09 10:36:04;;;;;;;3.25;1.38;;;;;;;;;;5030426;28;20388;-87
2021/05/09 10:38:49;;;;;;;2.88;1.23;;;;;;;;;;5016858;28;20917;-85
2021/05/09 10:41:17;;;;;;;1.80;1.08;;;;;;;;;;5029406;28;20389;-90
2021/05/09 10:43:45;;;;;;;2.70;1.20;;;;;;;;;;5027141;28;20416;-92
2021/05/09 10:46:12;;;;;;;2.60;1.17;;;;;;;;;;5018264;28;20410;-92
2021/05/09 10:48:39;;;;;;;2.50;1.40;;;;;;;;;;5012611;28;20462;-91
2021/05/09 10:51:05;;;;;;;3.38;3.05;;;;;;;;;;5009943;28;20484;-87
2021/05/09 10:53:31;;;;;;;9.87;3.90;;;;;;;;;;5009793;28;20838;-89
2021/05/09 10:56:02;;;;;;;6.93;3.75;;;;;;;;;;5010992;28;20390;-90
2021/05/09 10:58:40;;;;;;;5.53;4.47;;;;;;;;;;5031605;28;20400;-88
2021/05/09 11:01:09;;;;;;;1.58;1.10;;;;;;;;;;5028009;28;20615;-91
2021/05/09 11:03:39;;;;;;;2.67;1.17;;;;;;;;;;5010257;28;20793;-81
2021/05/09 11:06:08;;;;;;;2.03;1.30;;;;;;;;;;5009913;28;20482;-80
2021/05/09 11:08:43;;;;;;;3.50;1.10;;;;;;;;;;5027352;28;20773;-82
2021/05/09 11:11:19;;;;;;;2.25;1.15;;;;;;;;;;5030617;28;20732;-81
2021/05/09 11:16:29;;;;;;;4.47;1.20;;;;;;;;;;5030844;28;20903;-82
2021/05/09 11:18:58;;;;;;;2.45;1.15;;;;;;;;;;5012097;28;20387;-81
2021/05/09 11:21:30;;;;;;;1.67;1.13;;;;;;;;;;5025327;28;20393;-86
2021/05/09 11:23:56;;;;;;;4.03;1.20;;;;;;;;;;5028034;28;20389;-82
2021/05/09 11:26:23;;;;;;;3.38;1.10;;;;;;;;;;5018513;28;20474;-80
2021/05/09 11:29:08;;;;;;;1.85;1.10;;;;;;;;;;5014115;28;20489;-80
2021/05/09 11:31:35;;;;;;;2.17;1.20;;;;;;;;;;5012879;28;20383;-80
2021/05/09 11:34:01;;;;;;;3.20;1.13;;;;;;;;;;5008609;28;20415;-80
2021/05/09 11:36:28;;;;;;;2.70;1.00;;;;;;;;;;5008676;28;20453;-80
2021/05/09 11:39:09;;;;;;;2.80;1.02;;;;;;;;;;5008861;28;20418;-82
2021/05/09 11:41:57;;;;;;;1.20;0.90;;;;;;;;;;5016076;28;20852;-82
2021/05/09 11:44:25;;;;;;;1.48;1.02;;;;;;;;;;5017975;28;20879;-81
2021/05/09 12:02:52;;;;;;;1.40;0.98;;;;;;;;;;5109164;27;20358;-84
2021/05/09 12:05:17;;;;;;;1.85;1.15;;;;;;;;;;5109322;28;20372;-86
2021/05/09 12:08:04;;;;;;;2.63;1.13;;;;;;;;;;5108338;28;20384;-87
2021/05/09 12:10:34;;;;;;;1.87;1.10;;;;;;;;;;5106216;28;20384;-81
2021/05/09 12:13:08;;;;;;;2.73;1.10;;;;;;;;;;5104396;28;21110;-81
2021/05/09 12:15:38;;;;;;;2.15;1.00;;;;;;;;;;5105452;28;20445;-81
2021/05/09 12:18:04;;;;;;;7.65;1.48;;;;;;;;;;5105706;28;20381;-85
2021/05/09 12:20:30;;;;;;;2.17;1.20;;;;;;;;;;5107384;28;20445;-80
2021/05/09 12:23:00;;;;;;;6.10;1.40;;;;;;;;;;5117468;28;20368;-80
2021/05/09 12:25:37;;;;;;;2.90;1.60;;;;;;;;;;5117308;28;20748;-82
2021/05/09 12:28:10;;;;;;;3.10;1.37;;;;;;;;;;5112590;28;20376;-80
2021/05/09 12:30:36;;;;;;;1.50;1.10;;;;;;;;;;5116249;28;20411;-80
2021/05/09 12:33:02;;;;;;;3.03;1.10;;;;;;;;;;5106086;28;20388;-84
2021/05/09 12:35:40;;;;;;;1.23;1.02;;;;;;;;;;5105479;28;20378;-86
2021/05/09 12:38:06;;;;;;;2.60;1.27;;;;;;;;;;5102286;28;20872;-82
2021/05/09 12:40:34;;;;;;;5.82;1.73;;;;;;;;;;5103125;28;20523;-84
2021/05/09 12:43:05;;;;;;;3.95;1.10;;;;;;;;;;5103710;28;20387;-84
2021/05/09 12:45:33;;;;;;;4.00;1.30;;;;;;;;;;5090117;28;20372;-85
2021/05/09 12:47:59;;;;;;;3.10;1.20;;;;;;;;;;5105965;28;20528;-82
2021/05/09 12:50:25;;;;;;;2.00;1.23;;;;;;;;;;5104242;28;20360;-83
2021/05/09 12:52:51;;;;;;;2.30;1.40;;;;;;;;;;5104014;28;20753;-84
2021/05/09 12:55:24;;;;;;;2.95;1.42;;;;;;;;;;5107161;28;20364;-84
2021/05/09 12:58:11;;;;;;;5.22;1.30;;;;;;;;;;5104606;28;20364;-85
2021/05/09 13:00:38;;;;;;;1.95;1.17;;;;;;;;;;5107839;28;20403;-83
2021/05/09 13:03:04;;;;;;;2.95;1.20;;;;;;;;;;5096653;28;20368;-85
2021/05/09 13:05:30;;;;;;;3.13;1.05;;;;;;;;;;5094524;28;20365;-83
2021/05/09 13:07:56;;;;;;;2.20;1.27;;;;;;;;;;5091427;28;21046;-85
2021/05/09 13:10:23;;;;;;;2.50;1.20;;;;;;;;;;5093280;28;20372;-84
2021/05/09 13:12:50;;;;;;;1.45;1.02;;;;;;;;;;5090446;28;20369;-84
2021/05/09 13:15:19;;;;;;;1.88;1.33;;;;;;;;;;5091234;28;20372;-84
2021/05/09 13:17:45;;;;;;;1.55;1.10;;;;;;;;;;5091039;28;20433;-85
2021/05/09 13:20:11;;;;;;;1.10;0.90;;;;;;;;;;5091658;28;21026;-84
2021/05/09 13:22:37;;;;;;;1.55;1.25;;;;;;;;;;5092758;28;20381;-85
2021/05/09 13:25:04;;;;;;;5.15;1.30;;;;;;;;;;5091707;28;20376;-86
2021/05/09 13:27:32;;;;;;;2.53;1.10;;;;;;;;;;5092176;28;20480;-84
2021/05/09 13:29:59;;;;;;;5.85;1.40;;;;;;;;;;5091991;28;20379;-86
2021/05/09 13:32:26;;;;;;;2.50;1.20;;;;;;;;;;5093254;28;20377;-84
2021/05/09 13:34:59;;;;;;;1.63;1.10;;;;;;;;;;5089519;28;20389;-84
2021/05/09 13:37:25;;;;;;;2.22;1.00;;;;;;;;;;5091060;28;20368;-84
2021/05/09 13:39:51;;;;;;;2.28;1.13;;;;;;;;;;5090309;28;20407;-85
2021/05/09 13:42:19;;;;;;;1.77;1.00;;;;;;;;;;5092661;28;20420;-84
2021/05/09 13:44:45;;;;;;;1.50;1.00;;;;;;;;;;5091610;28;20378;-85
2021/05/09 13:47:12;;;;;;;2.22;1.10;;;;;;;;;;5091931;28;20888;-84
2021/05/09 13:49:40;;;;;;;1.93;1.10;;;;;;;;;;5091971;28;20425;-84
2021/05/09 13:52:09;;;;;;;2.25;1.20;;;;;;;;;;5092326;28;20707;-85
2021/05/09 13:54:37;;;;;;;2.25;1.20;;;;;;;;;;5092107;28;20372;-85
2021/05/09 13:57:03;;;;;;;1.90;1.00;;;;;;;;;;5091895;28;20392;-84
2021/05/09 13:59:29;;;;;;;2.38;1.20;;;;;;;;;;5092633;28;20434;-84
2021/05/09 14:01:55;;;;;;;3.08;1.30;;;;;;;;;;5091502;28;20420;-84
2021/05/09 14:04:21;;;;;;;2.00;1.30;;;;;;;;;;5091527;28;20384;-84
2021/05/09 14:06:47;;;;;;;1.70;1.00;;;;;;;;;;5091222;28;20862;-84
2021/05/09 14:09:13;;;;;;;1.40;1.30;;;;;;;;;;5091624;28;20372;-86
2021/05/09 14:11:40;;;;;;;4.00;1.50;;;;;;;;;;5091614;28;20387;-85
2021/05/09 14:14:06;;;;;;;2.05;1.30;;;;;;;;;;5090030;28;20369;-85
2021/05/09 14:16:32;;;;;;;2.25;1.23;;;;;;;;;;5090844;28;20383;-84
2021/05/09 14:18:59;;;;;;;2.67;1.50;;;;;;;;;;5090956;28;20412;-85
2021/05/09 14:21:25;;;;;;;3.05;1.15;;;;;;;;;;5091489;28;20572;-84
2021/05/09 14:23:51;;;;;;;2.00;1.20;;;;;;;;;;5091630;28;20438;-86
2021/05/09 14:26:17;;;;;;;3.40;1.30;;;;;;;;;;5091427;28;20373;-85
2021/05/09 14:28:43;;;;;;;1.70;1.25;;;;;;;;;;5091179;28;20386;-85
2021/05/09 14:31:11;;;;;;;2.15;1.08;;;;;;;;;;5089963;28;20377;-84
2021/05/09 14:33:38;;;;;;;7.73;1.50;;;;;;;;;;5089545;28;20381;-84
2021/05/09 14:36:04;;;;;;;3.40;1.30;;;;;;;;;;5090863;28;20377;-84
2021/05/09 14:38:30;;;;;;;2.42;1.10;;;;;;;;;;5090987;28;20858;-84
2021/05/09 14:40:56;;;;;;;2.05;1.20;;;;;;;;;;5090425;28;20413;-84
2021/05/09 14:43:22;;;;;;;3.03;1.20;;;;;;;;;;5090839;28;20376;-85
2021/05/09 14:45:48;;;;;;;1.65;1.20;;;;;;;;;;5090523;28;20372;-85
2021/05/09 14:48:14;;;;;;;2.63;1.20;;;;;;;;;;5090471;28;20380;-85
2021/05/09 14:50:43;;;;;;;2.97;1.20;;;;;;;;;;5090985;28;20403;-84
2021/05/09 14:53:26;;;;;;;3.00;1.40;;;;;;;;;;5091603;28;20396;-86
2021/05/09 14:55:52;;;;;;;2.20;1.10;;;;;;;;;;5090019;28;20507;-85
2021/05/09 14:58:19;;;;;;;12.18;1.98;;;;;;;;;;5089091;28;20380;-85
2021/05/09 15:00:51;;;;;;;2.97;1.30;;;;;;;;;;5088669;28;20903;-85
2021/05/09 15:03:18;;;;;;;3.55;1.38;;;;;;;;;;5088612;28;20391;-84
2021/05/09 15:05:44;;;;;;;5.30;1.50;;;;;;;;;;5087243;28;20735;-86